createdAt,value
2023-05-13T00:01:27.601Z,8.10
2023-05-13T00:04:17.701Z,9.20
2023-05-13T00:07:06.397Z,8.48
2023-05-13T00:09:54.790Z,6.05
2023-05-13T00:12:43.822Z,6.93
2023-05-13T00:15:32.929Z,7.85
2023-05-13T00:18:21.523Z,11.55
2023-05-13T00:21:11.610Z,7.85
2023-05-13T00:24:00.032Z,7.13
2023-05-13T00:26:48.449Z,9.60
2023-05-13T00:29:36.923Z,9.63
2023-05-13T00:32:25.357Z,6.30
2023-05-13T00:35:13.882Z,6.78
2023-05-13T00:38:03.804Z,6.00
2023-05-13T00:40:52.359Z,6.90
2023-05-13T00:43:40.806Z,9.10
2023-05-13T00:46:32.998Z,10.50
2023-05-13T00:49:21.343Z,6.22
2023-05-13T00:52:10.048Z,6.50
2023-05-13T00:55:02.201Z,8.50
2023-05-13T00:57:50.713Z,9.38
2023-05-13T01:00:48.531Z,10.23
2023-05-13T01:03:46.046Z,7.78
2023-05-13T01:06:46.696Z,8.75
2023-05-13T01:09:43.595Z,7.07
2023-05-13T01:12:36.267Z,6.65
2023-05-13T01:15:27.870Z,8.30
2023-05-13T01:18:20.512Z,7.35
2023-05-13T01:21:09.724Z,7.40
2023-05-13T01:23:59.583Z,7.47
2023-05-13T01:26:48.345Z,7.00
2023-05-13T01:29:37.769Z,9.95
2023-05-13T01:32:26.603Z,14.17
2023-05-13T01:35:16.323Z,8.80
2023-05-13T01:38:05.816Z,8.70
2023-05-13T01:40:57.169Z,7.35
2023-05-13T01:43:45.572Z,6.72
2023-05-13T01:46:34.007Z,8.35
2023-05-13T01:49:22.447Z,10.50
2023-05-13T01:52:10.905Z,12.18
2023-05-13T01:54:59.887Z,10.25
2023-05-13T01:57:49.721Z,9.13
2023-05-13T02:00:38.223Z,10.55
2023-05-13T02:03:26.813Z,11.45
2023-05-13T02:06:15.248Z,13.20
2023-05-13T02:09:03.877Z,12.30
2023-05-13T02:11:52.290Z,16.17
2023-05-13T02:14:42.098Z,12.90
2023-05-13T02:17:30.584Z,18.23
2023-05-13T02:20:19.446Z,12.13
2023-05-13T02:23:08.050Z,12.60
2023-05-13T02:25:56.424Z,12.43
2023-05-13T02:28:44.970Z,14.27
2023-05-13T02:31:35.228Z,14.77
2023-05-13T02:34:23.634Z,11.80
2023-05-13T02:37:11.981Z,17.00
2023-05-13T02:40:00.372Z,12.05
2023-05-13T02:42:48.785Z,9.85
2023-05-13T02:45:37.264Z,11.07
2023-05-13T02:48:27.064Z,10.32
2023-05-13T02:51:15.672Z,11.85
2023-05-13T02:54:04.135Z,12.90
2023-05-13T02:56:52.501Z,13.80
2023-05-13T02:59:41.053Z,15.40
2023-05-13T03:02:29.672Z,12.75
2023-05-13T03:05:19.556Z,12.00
2023-05-13T03:08:07.941Z,10.77
2023-05-13T03:10:56.396Z,11.07
2023-05-13T03:13:44.800Z,12.55
2023-05-13T03:16:33.336Z,12.18
2023-05-13T03:19:21.836Z,13.50
2023-05-13T03:22:11.623Z,12.93
2023-05-13T03:25:00.200Z,17.80
2023-05-13T03:27:48.710Z,17.63
2023-05-13T03:30:37.201Z,16.13
2023-05-13T03:33:25.759Z,15.70
2023-05-13T03:36:14.236Z,18.25
2023-05-13T03:39:04.083Z,13.02
2023-05-13T03:41:52.570Z,14.23
2023-05-13T03:44:41.923Z,19.42
2023-05-13T03:47:30.372Z,18.70
2023-05-13T03:50:18.993Z,17.10
2023-05-13T03:53:07.440Z,15.85
2023-05-13T03:55:57.343Z,20.57
2023-05-13T03:58:45.767Z,16.75
2023-05-13T04:01:34.196Z,14.43
2023-05-13T04:04:22.591Z,14.45
2023-05-13T04:07:11.214Z,21.38
2023-05-13T04:09:59.639Z,19.42
2023-05-13T04:12:49.438Z,18.23
2023-05-13T04:15:37.848Z,18.30
2023-05-13T04:18:26.257Z,22.10
2023-05-13T04:21:14.781Z,19.08
2023-05-13T04:24:03.211Z,24.70
2023-05-13T04:26:52.217Z,25.00
2023-05-13T04:29:41.975Z,24.20
2023-05-13T04:32:30.381Z,28.30
2023-05-13T04:35:19.037Z,26.08
2023-05-13T04:38:07.504Z,24.63
2023-05-13T04:40:55.880Z,30.20
2023-05-13T04:43:44.290Z,24.15
2023-05-13T04:46:34.178Z,24.40
2023-05-13T04:49:22.599Z,23.10
2023-05-13T04:52:12.894Z,23.90
2023-05-13T04:55:01.562Z,22.73
2023-05-13T04:57:50.286Z,22.93
2023-05-13T05:00:38.997Z,24.73
2023-05-13T05:03:29.122Z,26.10
2023-05-13T05:06:17.965Z,22.70
2023-05-13T05:09:07.042Z,22.40
2023-05-13T05:11:55.760Z,22.52
2023-05-13T05:14:44.254Z,21.02
2023-05-13T05:17:34.010Z,22.15
2023-05-13T05:20:25.381Z,18.43
2023-05-13T05:23:13.768Z,18.13
2023-05-13T05:26:11.213Z,20.57
2023-05-13T05:29:00.754Z,19.10
2023-05-13T05:31:49.417Z,18.33
2023-05-13T05:34:37.877Z,27.30
2023-05-13T05:37:27.884Z,28.23
2023-05-13T05:40:16.292Z,21.27
2023-05-13T05:43:04.673Z,17.38
2023-05-13T05:45:53.137Z,25.02
2023-05-13T05:48:41.610Z,25.48
2023-05-13T05:51:30.042Z,20.98
2023-05-13T05:54:19.860Z,21.53
2023-05-13T05:57:08.304Z,17.88
2023-05-13T05:59:56.798Z,19.27
2023-05-13T06:02:46.047Z,19.30
2023-05-13T06:05:35.336Z,20.38
2023-05-13T06:08:29.897Z,21.08
2023-05-13T06:11:19.768Z,20.02
2023-05-13T06:14:08.193Z,22.90
2023-05-13T06:16:56.688Z,19.05
2023-05-13T06:19:45.295Z,17.08
2023-05-13T06:22:33.761Z,19.05
2023-05-13T06:25:22.158Z,19.58
2023-05-13T06:28:13.084Z,21.00
2023-05-13T06:31:01.692Z,19.50
2023-05-13T06:33:50.178Z,13.25
2023-05-13T06:36:38.623Z,13.55
2023-05-13T06:39:27.069Z,15.20
2023-05-13T06:42:15.569Z,16.77
2023-05-13T06:45:06.072Z,11.85
2023-05-13T06:47:54.909Z,10.10
2023-05-13T06:50:43.588Z,9.23
2023-05-13T06:53:32.237Z,14.50
2023-05-13T06:56:22.900Z,11.90
2023-05-13T06:59:12.200Z,13.98
2023-05-13T07:02:02.007Z,13.05
2023-05-13T07:04:50.529Z,12.67
2023-05-13T07:07:38.971Z,9.48
2023-05-13T07:10:27.725Z,10.82
2023-05-13T07:13:16.206Z,9.82
2023-05-13T07:16:04.938Z,14.65
2023-05-13T07:18:54.997Z,9.32
2023-05-13T07:21:43.525Z,11.77
2023-05-13T07:24:32.051Z,12.57
2023-05-13T07:27:20.625Z,8.48
2023-05-13T07:30:11.082Z,10.85
2023-05-13T07:32:59.573Z,8.43
2023-05-13T07:35:49.495Z,8.23
2023-05-13T07:38:38.580Z,12.68
2023-05-13T07:41:27.667Z,7.80
2023-05-13T07:44:16.151Z,6.75
2023-05-13T07:47:04.656Z,7.17
2023-05-13T07:49:53.107Z,8.02
2023-05-13T07:52:43.259Z,6.50
2023-05-13T07:55:31.807Z,6.80
2023-05-13T07:58:20.673Z,9.40
2023-05-13T08:01:09.238Z,10.70
2023-05-13T08:03:57.830Z,9.15
2023-05-13T08:06:46.366Z,7.78
2023-05-13T08:09:36.252Z,7.53
2023-05-13T08:12:24.805Z,9.52
2023-05-13T08:15:14.380Z,8.48
2023-05-13T08:18:02.916Z,7.47
2023-05-13T08:20:51.577Z,8.48
2023-05-13T08:23:45.401Z,13.50
2023-05-13T08:26:36.101Z,7.80
2023-05-13T08:29:24.594Z,7.97
2023-05-13T08:32:13.448Z,6.72
2023-05-13T08:35:02.286Z,6.72
2023-05-13T08:37:50.708Z,8.55
2023-05-13T08:40:39.309Z,8.07
2023-05-13T08:43:30.626Z,6.28
2023-05-13T08:46:20.593Z,6.75
2023-05-13T08:49:10.227Z,5.13
2023-05-13T08:51:58.769Z,7.32
2023-05-13T08:54:48.827Z,8.52
2023-05-13T08:57:37.312Z,6.03
2023-05-13T09:00:27.465Z,3.88
2023-05-13T09:03:16.768Z,3.90
2023-05-13T09:06:05.968Z,6.60
2023-05-13T09:08:54.768Z,4.32
2023-05-13T09:11:44.734Z,3.63
2023-05-13T09:14:33.589Z,3.22
2023-05-13T09:17:23.491Z,6.68
2023-05-13T09:20:13.779Z,4.60
2023-05-13T09:23:03.447Z,6.15
2023-05-13T09:25:51.914Z,6.70
2023-05-13T09:28:40.364Z,5.97
2023-05-13T09:31:34.345Z,4.82
2023-05-13T09:34:28.431Z,7.05
2023-05-13T09:37:19.445Z,6.43
2023-05-13T09:40:12.675Z,5.18
2023-05-13T09:43:01.449Z,5.82
2023-05-13T09:45:53.698Z,5.15
2023-05-13T09:48:44.782Z,4.57
2023-05-13T09:51:34.540Z,2.92
2023-05-13T09:54:22.985Z,3.67
2023-05-13T09:57:14.644Z,4.60
2023-05-13T10:00:05.513Z,4.72
2023-05-13T10:02:54.295Z,4.32
2023-05-13T10:05:43.191Z,6.53
2023-05-13T10:08:33.198Z,5.43
2023-05-13T10:11:21.803Z,5.43
2023-05-13T10:14:10.316Z,4.00
2023-05-13T10:17:00.856Z,4.00
2023-05-13T10:19:50.806Z,7.80
2023-05-13T10:22:40.092Z,5.88
2023-05-13T10:25:31.513Z,6.28
2023-05-13T10:28:21.474Z,5.25
2023-05-13T10:31:09.969Z,3.33
2023-05-13T10:33:59.663Z,4.72
2023-05-13T10:36:55.157Z,3.87
2023-05-13T10:40:01.614Z,4.50
2023-05-13T10:42:57.450Z,6.15
2023-05-13T10:45:47.353Z,3.13
2023-05-13T10:48:41.848Z,2.40
2023-05-13T10:51:30.321Z,3.63
2023-05-13T10:54:24.701Z,2.92
2023-05-13T10:57:15.587Z,2.85
2023-05-13T11:00:16.697Z,3.90
2023-05-13T11:03:13.591Z,3.30
2023-05-13T11:06:16.217Z,3.85
2023-05-13T11:09:07.517Z,4.38
2023-05-13T11:11:57.616Z,3.22
2023-05-13T11:14:46.586Z,3.10
2023-05-13T11:17:38.499Z,4.95
2023-05-13T11:20:26.952Z,2.95
2023-05-13T11:23:19.460Z,4.05
2023-05-13T11:26:12.565Z,2.13
2023-05-13T11:29:06.385Z,3.97
2023-05-13T11:31:59.994Z,2.75
2023-05-13T11:34:53.596Z,4.50
2023-05-13T11:37:44.052Z,2.57
2023-05-13T11:40:34.075Z,3.08
2023-05-13T11:43:23.403Z,2.70
2023-05-13T11:46:12.393Z,3.55
2023-05-13T11:49:00.978Z,2.45
2023-05-13T11:51:50.871Z,2.40
2023-05-13T11:54:44.087Z,1.90
2023-05-13T11:57:33.239Z,1.38
2023-05-13T12:00:27.167Z,2.40
2023-05-13T12:03:16.510Z,4.13
2023-05-13T12:06:06.597Z,3.00
2023-05-13T12:08:56.737Z,3.33
2023-05-13T12:11:45.635Z,1.83
2023-05-13T12:14:34.336Z,1.20
2023-05-13T12:17:23.310Z,2.60
2023-05-13T12:20:14.238Z,2.10
2023-05-13T12:23:04.516Z,0.82
2023-05-13T12:25:54.898Z,0.98
2023-05-13T12:28:43.350Z,1.20
2023-05-13T12:31:31.824Z,0.50
2023-05-13T12:34:31.981Z,1.45
2023-05-13T12:37:20.457Z,0.80
2023-05-13T12:40:12.619Z,1.75
2023-05-13T12:43:03.764Z,1.10
2023-05-13T12:45:55.688Z,1.00
2023-05-13T12:48:45.291Z,0.75
2023-05-13T12:51:34.241Z,1.35
2023-05-13T12:54:22.835Z,3.03
2023-05-13T12:57:11.690Z,1.63
2023-05-13T13:00:01.426Z,1.88
2023-05-13T13:02:49.966Z,1.40
2023-05-13T13:05:38.627Z,2.78
2023-05-13T13:08:28.816Z,1.53
2023-05-13T13:11:19.430Z,1.17
2023-05-13T13:14:08.334Z,1.63
2023-05-13T13:16:58.155Z,0.88
2023-05-13T13:19:46.677Z,1.13
2023-05-13T13:22:37.036Z,1.10
2023-05-13T13:25:25.511Z,0.47
2023-05-13T13:28:14.033Z,2.53
2023-05-13T13:31:02.455Z,1.33
2023-05-13T13:33:53.816Z,1.00
2023-05-13T13:36:42.290Z,1.52
2023-05-13T13:39:30.692Z,1.23
2023-05-13T13:42:19.173Z,1.07
2023-05-13T13:45:08.501Z,0.70
2023-05-13T13:47:57.079Z,3.35
2023-05-13T13:50:48.078Z,2.83
2023-05-13T13:53:37.291Z,2.95
2023-05-13T13:56:26.206Z,4.15
2023-05-13T13:59:14.617Z,3.33
2023-05-13T14:02:02.962Z,3.10
2023-05-13T14:04:52.143Z,5.18
2023-05-13T14:07:41.994Z,3.88
2023-05-13T14:10:30.466Z,2.67
2023-05-13T14:13:18.949Z,2.55
2023-05-13T14:16:07.738Z,2.95
2023-05-13T14:18:56.468Z,2.05
2023-05-13T14:21:45.235Z,3.15
2023-05-13T14:24:35.329Z,1.10
2023-05-13T14:27:24.606Z,1.85
2023-05-13T14:30:13.865Z,1.75
2023-05-13T14:33:02.417Z,3.63
2023-05-13T14:35:51.144Z,3.13
2023-05-13T14:38:40.318Z,3.30
2023-05-13T14:41:30.337Z,2.05
2023-05-13T14:44:18.807Z,4.07
2023-05-13T14:47:07.596Z,2.88
2023-05-13T14:49:56.146Z,3.40
2023-05-13T14:52:44.533Z,1.58
2023-05-13T14:55:33.108Z,1.40
2023-05-13T14:58:23.038Z,1.23
2023-05-13T15:01:11.517Z,1.65
2023-05-13T15:04:00.465Z,1.90
2023-05-13T15:06:49.349Z,2.13
2023-05-13T15:09:37.949Z,2.00
2023-05-13T15:12:26.459Z,0.80
2023-05-13T15:15:16.321Z,0.60
2023-05-13T15:18:04.920Z,0.80
2023-05-13T15:20:53.365Z,1.80
2023-05-13T15:23:41.772Z,1.70
2023-05-13T15:26:30.193Z,0.93
2023-05-13T15:29:18.813Z,1.75
2023-05-13T15:32:08.848Z,3.40
2023-05-13T15:34:57.330Z,1.85
2023-05-13T15:37:45.736Z,1.63
2023-05-13T15:40:34.180Z,1.27
2023-05-13T15:43:22.644Z,2.10
2023-05-13T15:46:11.208Z,1.42
2023-05-13T15:49:01.169Z,2.55
2023-05-13T15:51:49.605Z,2.92
2023-05-13T15:54:38.190Z,3.90
2023-05-13T15:57:26.645Z,1.88
2023-05-13T16:00:16.580Z,2.05
2023-05-13T16:03:05.215Z,1.10
2023-05-13T16:05:55.347Z,2.50
2023-05-13T16:08:43.806Z,1.27
2023-05-13T16:11:32.243Z,1.58
2023-05-13T16:14:20.604Z,1.30
2023-05-13T16:17:09.089Z,1.90
2023-05-13T16:19:57.568Z,2.65
2023-05-13T16:22:47.470Z,1.83
2023-05-13T16:25:36.103Z,1.48
2023-05-13T16:28:24.636Z,1.77
2023-05-13T16:31:13.104Z,2.50
2023-05-13T16:34:01.527Z,1.45
2023-05-13T16:36:49.897Z,6.53
2023-05-13T16:39:40.021Z,1.85
2023-05-13T16:42:28.639Z,1.40
2023-05-13T16:45:17.174Z,1.95
2023-05-13T16:48:06.347Z,1.23
2023-05-13T16:50:56.222Z,1.33
2023-05-13T16:53:44.822Z,2.63
2023-05-13T16:56:34.640Z,1.73
2023-05-13T16:59:24.015Z,1.70
2023-05-13T17:02:12.750Z,0.90
2023-05-13T17:05:01.234Z,2.30
2023-05-13T17:07:49.714Z,1.77
2023-05-13T17:10:38.278Z,1.27
2023-05-13T17:13:28.145Z,0.70
2023-05-13T17:16:16.769Z,1.00
2023-05-13T17:19:05.610Z,1.40
2023-05-13T17:21:54.247Z,1.93
2023-05-13T17:24:42.988Z,2.38
2023-05-13T17:27:31.431Z,1.00
2023-05-13T17:30:23.054Z,3.22
2023-05-13T17:33:11.905Z,1.17
2023-05-13T17:36:01.011Z,1.10
2023-05-13T17:38:50.355Z,2.55
2023-05-13T17:41:38.874Z,1.55
2023-05-13T17:44:27.407Z,0.60
2023-05-13T17:47:17.232Z,1.00
2023-05-13T17:50:06.480Z,1.00
2023-05-13T17:52:54.975Z,0.70
2023-05-13T17:55:43.492Z,1.60
2023-05-13T17:58:31.888Z,0.60
2023-05-13T18:01:21.787Z,0.63
2023-05-13T18:04:11.758Z,0.70
2023-05-13T18:07:00.229Z,0.57
2023-05-13T18:09:49.932Z,1.08
2023-05-13T18:12:38.476Z,1.40
2023-05-13T18:15:26.922Z,1.50
2023-05-13T18:18:16.294Z,1.10
2023-05-13T18:21:06.177Z,0.65
2023-05-13T18:23:54.619Z,0.80
2023-05-13T18:26:43.147Z,0.82
2023-05-13T18:29:31.576Z,2.03
2023-05-13T18:32:19.997Z,2.13
2023-05-13T18:35:09.260Z,2.00
2023-05-13T18:37:59.082Z,1.63
2023-05-13T18:40:47.528Z,1.33
2023-05-13T18:43:35.932Z,3.50
2023-05-13T18:46:24.521Z,1.83
2023-05-13T18:49:13.079Z,2.20
2023-05-13T18:52:01.596Z,1.30
2023-05-13T18:54:51.793Z,1.60
2023-05-13T18:57:40.657Z,1.30
2023-05-13T19:00:29.173Z,1.27
2023-05-13T19:03:18.006Z,1.17
2023-05-13T19:06:06.546Z,1.30
2023-05-13T19:08:55.083Z,1.70
2023-05-13T19:11:45.104Z,1.40
2023-05-13T19:14:33.702Z,1.85
2023-05-13T19:17:22.278Z,2.80
2023-05-13T19:20:11.863Z,2.20
2023-05-13T19:23:00.331Z,2.00
2023-05-13T19:25:48.906Z,1.98
2023-05-13T19:28:39.712Z,2.13
2023-05-13T19:31:28.283Z,1.65
2023-05-13T19:34:16.808Z,2.55
2023-05-13T19:37:06.530Z,1.63
2023-05-13T19:39:55.043Z,1.10
2023-05-13T19:42:43.540Z,1.20
2023-05-13T19:45:34.364Z,1.90
2023-05-13T19:48:22.877Z,1.40
2023-05-13T19:51:11.340Z,2.20
2023-05-13T19:53:59.907Z,1.02
2023-05-13T19:56:48.388Z,1.45
2023-05-13T19:59:39.428Z,1.38
2023-05-13T20:02:29.424Z,1.20
2023-05-13T20:05:18.058Z,1.25
2023-05-13T20:08:06.681Z,1.02
2023-05-13T20:10:55.120Z,2.15
2023-05-13T20:13:43.669Z,1.20
2023-05-13T20:16:32.132Z,1.55
2023-05-13T20:19:22.292Z,0.70
2023-05-13T20:22:10.978Z,1.30
2023-05-13T20:24:59.429Z,1.25
2023-05-13T20:27:47.868Z,0.77
2023-05-13T20:30:36.414Z,0.90
2023-05-13T20:33:24.896Z,1.20
2023-05-13T20:36:14.802Z,1.58
2023-05-13T20:39:03.245Z,1.85
2023-05-13T20:41:51.966Z,1.55
2023-05-13T20:44:40.624Z,0.57
2023-05-13T20:47:29.049Z,0.68
2023-05-13T20:50:17.808Z,1.95
2023-05-13T20:53:07.676Z,1.70
2023-05-13T20:55:56.123Z,2.10
2023-05-13T20:58:44.554Z,0.60
2023-05-13T21:01:33.934Z,2.95
2023-05-13T21:04:22.712Z,1.20
2023-05-13T21:07:11.666Z,1.20
2023-05-13T21:10:01.513Z,1.60
2023-05-13T21:12:51.231Z,1.23
2023-05-13T21:15:39.791Z,0.93
2023-05-13T21:18:28.308Z,0.80
2023-05-13T21:21:16.715Z,1.35
2023-05-13T21:24:05.638Z,1.17
2023-05-13T21:26:55.482Z,0.88
2023-05-13T21:29:43.968Z,0.88
2023-05-13T21:32:32.459Z,0.80
2023-05-13T21:35:21.110Z,1.17
2023-05-13T21:38:12.369Z,1.25
2023-05-13T21:41:01.300Z,1.63
2023-05-13T21:43:51.100Z,0.52
2023-05-13T21:46:39.498Z,2.10
2023-05-13T21:49:28.026Z,1.27
2023-05-13T21:52:16.502Z,0.50
2023-05-13T21:55:05.312Z,0.52
2023-05-13T21:57:54.022Z,0.83
2023-05-13T22:00:43.930Z,1.05
2023-05-13T22:03:32.525Z,0.63
2023-05-13T22:06:21.016Z,0.60
2023-05-13T22:09:09.370Z,0.70
2023-05-13T22:11:57.788Z,0.60
2023-05-13T22:14:46.214Z,1.00
2023-05-13T22:17:36.378Z,0.68
2023-05-13T22:20:25.455Z,1.10
2023-05-13T22:23:14.196Z,1.57
2023-05-13T22:26:02.606Z,0.80
2023-05-13T22:28:51.196Z,2.03
2023-05-13T22:31:39.617Z,1.50
2023-05-13T22:34:29.510Z,1.05
2023-05-13T22:37:18.020Z,3.08
2023-05-13T22:40:07.782Z,3.78
2023-05-13T22:42:56.213Z,2.30
2023-05-13T22:45:44.700Z,2.72
2023-05-13T22:48:33.073Z,2.42
2023-05-13T22:51:22.913Z,2.95
2023-05-13T22:54:11.435Z,3.03
2023-05-13T22:57:00.226Z,2.38
2023-05-13T22:59:48.733Z,2.20
2023-05-13T23:02:37.156Z,2.75
2023-05-13T23:05:25.613Z,1.52
2023-05-13T23:08:15.555Z,1.27
2023-05-13T23:11:04.320Z,3.63
2023-05-13T23:13:52.708Z,1.92
2023-05-13T23:16:41.272Z,1.90
2023-05-13T23:19:30.590Z,2.35
2023-05-13T23:22:19.044Z,3.00
2023-05-13T23:25:10.294Z,1.90
2023-05-13T23:27:58.670Z,2.50
2023-05-13T23:30:47.096Z,1.63
2023-05-13T23:33:35.599Z,1.27
2023-05-13T23:36:24.088Z,2.45
2023-05-13T23:39:12.479Z,2.17
2023-05-13T23:42:02.290Z,1.35
2023-05-13T23:44:50.746Z,2.17
2023-05-13T23:47:39.252Z,1.67
2023-05-13T23:50:27.761Z,1.20
2023-05-13T23:53:16.289Z,1.20
2023-05-13T23:56:05.055Z,1.50
2023-05-13T23:58:54.878Z,1.50
